createdAt,value
2023-03-10T00:00:47.739Z,92.68
2023-03-10T00:01:57.699Z,92.72
2023-03-10T00:03:00.458Z,92.68
2023-03-10T00:04:03.418Z,92.64
2023-03-10T00:05:06.593Z,92.63
2023-03-10T00:06:10.685Z,92.61
2023-03-10T00:07:13.530Z,92.67
2023-03-10T00:08:16.274Z,92.72
2023-03-10T00:09:19.004Z,92.74
2023-03-10T00:10:21.797Z,92.77
2023-03-10T00:11:24.530Z,92.74
2023-03-10T00:12:28.075Z,92.70
2023-03-10T00:13:30.949Z,92.78
2023-03-10T00:14:33.701Z,92.71
2023-03-10T00:15:36.516Z,92.71
2023-03-10T00:16:39.512Z,92.78
2023-03-10T00:17:42.423Z,92.76
2023-03-10T00:18:46.454Z,92.73
2023-03-10T00:19:49.269Z,92.82
2023-03-10T00:20:52.652Z,92.81
2023-03-10T00:21:55.411Z,92.79
2023-03-10T00:22:58.184Z,92.81
2023-03-10T00:24:01.538Z,92.94
2023-03-10T00:25:04.572Z,92.91
2023-03-10T00:26:07.375Z,92.99
2023-03-10T00:27:10.164Z,92.90
2023-03-10T00:28:12.912Z,92.91
2023-03-10T00:29:15.891Z,93.00
2023-03-10T00:30:18.721Z,93.03
2023-03-10T00:31:23.169Z,93.10
2023-03-10T00:32:26.408Z,92.98
2023-03-10T00:33:30.904Z,93.09
2023-03-10T00:34:33.675Z,93.10
2023-03-10T00:35:36.473Z,93.16
2023-03-10T00:36:42.281Z,93.12
2023-03-10T00:37:45.236Z,93.25
2023-03-10T00:38:48.703Z,93.13
2023-03-10T00:39:52.512Z,93.16
2023-03-10T00:41:02.183Z,93.24
2023-03-10T00:42:05.250Z,93.24
2023-03-10T00:43:08.051Z,93.25
2023-03-10T00:44:11.598Z,93.33
2023-03-10T00:45:14.415Z,93.32
2023-03-10T00:46:17.917Z,93.33
2023-03-10T00:47:20.687Z,93.28
2023-03-10T00:48:23.727Z,93.35
2023-03-10T00:49:26.554Z,93.42
2023-03-10T00:50:29.294Z,93.49
2023-03-10T00:51:32.094Z,93.49
2023-03-10T00:52:34.870Z,93.47
2023-03-10T00:53:38.570Z,93.50
2023-03-10T00:54:42.133Z,93.54
2023-03-10T00:55:45.034Z,93.54
2023-03-10T00:56:47.783Z,93.60
2023-03-10T00:57:50.680Z,93.53
2023-03-10T00:58:54.729Z,93.63
2023-03-10T00:59:57.490Z,93.64
2023-03-10T01:01:00.713Z,93.62
2023-03-10T01:02:03.796Z,93.73
2023-03-10T01:03:07.162Z,93.62
2023-03-10T01:04:12.973Z,93.66
2023-03-10T01:05:15.870Z,93.70
2023-03-10T01:06:19.067Z,93.82
2023-03-10T01:07:21.998Z,93.84
2023-03-10T01:08:24.754Z,93.79
2023-03-10T01:09:27.607Z,93.82
2023-03-10T01:10:30.353Z,93.86
2023-03-10T01:11:33.618Z,93.95
2023-03-10T01:12:36.395Z,93.86
2023-03-10T01:13:41.033Z,93.85
2023-03-10T01:14:44.109Z,93.90
2023-03-10T01:15:50.975Z,93.92
2023-03-10T01:16:53.907Z,93.99
2023-03-10T01:17:56.800Z,94.01
2023-03-10T01:18:59.638Z,94.01
2023-03-10T01:20:07.014Z,94.03
2023-03-10T01:21:14.520Z,94.07
2023-03-10T01:22:17.296Z,94.14
2023-03-10T01:23:21.467Z,94.13
2023-03-10T01:24:25.712Z,94.17
2023-03-10T01:25:28.939Z,94.13
2023-03-10T01:26:32.128Z,94.20
2023-03-10T01:27:34.902Z,94.17
2023-03-10T01:28:37.764Z,94.20
2023-03-10T01:29:40.636Z,94.23
2023-03-10T01:30:43.619Z,94.21
2023-03-10T01:31:50.131Z,94.27
2023-03-10T01:32:53.013Z,94.23
2023-03-10T01:33:55.827Z,94.34
2023-03-10T01:34:58.588Z,94.36
2023-03-10T01:36:02.034Z,94.38
2023-03-10T01:37:04.961Z,94.39
2023-03-10T01:38:08.486Z,94.47
2023-03-10T01:39:11.282Z,94.43
2023-03-10T01:40:18.705Z,94.41
2023-03-10T01:41:22.339Z,94.47
2023-03-10T01:42:25.088Z,94.48
2023-03-10T01:43:29.032Z,94.50
2023-03-10T01:44:31.836Z,94.45
2023-03-10T01:45:34.578Z,94.55
2023-03-10T01:46:37.699Z,94.55
2023-03-10T01:47:43.894Z,94.60
2023-03-10T01:48:46.710Z,94.66
2023-03-10T01:49:49.486Z,94.59
2023-03-10T01:50:54.149Z,94.70
2023-03-10T01:52:00.027Z,94.65
2023-03-10T01:53:03.242Z,94.66
2023-03-10T01:54:09.406Z,94.62
2023-03-10T01:55:15.339Z,94.64
2023-03-10T01:56:18.362Z,94.79
2023-03-10T01:57:23.515Z,94.86
2023-03-10T01:58:29.969Z,94.88
2023-03-10T01:59:33.467Z,94.98
2023-03-10T02:00:36.791Z,95.00
2023-03-10T02:01:39.628Z,94.92
2023-03-10T02:03:03.253Z,95.01
2023-03-10T02:04:14.150Z,95.02
2023-03-10T02:05:18.949Z,95.21
2023-03-10T02:06:22.013Z,95.19
2023-03-10T02:07:29.084Z,95.24
2023-03-10T02:08:34.987Z,95.19
2023-03-10T02:09:40.153Z,95.19
2023-03-10T02:10:42.947Z,95.23
2023-03-10T02:11:47.105Z,95.18
2023-03-10T02:12:49.822Z,95.26
2023-03-10T02:13:53.147Z,95.22
2023-03-10T02:14:57.075Z,95.24
2023-03-10T02:16:01.604Z,95.16
2023-03-10T02:17:09.066Z,95.14
2023-03-10T02:18:13.435Z,95.16
2023-03-10T02:19:25.776Z,95.26
2023-03-10T02:20:47.207Z,95.23
2023-03-10T02:21:58.678Z,95.22
2023-03-10T02:23:01.758Z,95.26
2023-03-10T02:24:10.392Z,95.24
2023-03-10T02:25:42.240Z,95.33
2023-03-10T02:26:51.525Z,95.48
2023-03-10T02:27:57.953Z,95.53
2023-03-10T02:29:02.806Z,95.54
2023-03-10T02:30:11.273Z,95.63
2023-03-10T02:31:14.949Z,95.62
2023-03-10T02:32:18.793Z,95.55
2023-03-10T02:33:24.268Z,95.54
2023-03-10T02:34:28.113Z,95.67
2023-03-10T02:35:31.243Z,95.58
2023-03-10T02:36:37.666Z,95.59
2023-03-10T02:37:40.535Z,95.57
2023-03-10T02:38:43.341Z,95.58
2023-03-10T02:39:46.354Z,95.57
2023-03-10T02:40:52.343Z,95.57
2023-03-10T02:41:58.031Z,95.62
2023-03-10T02:43:02.714Z,95.57
2023-03-10T02:44:07.975Z,95.51
2023-03-10T02:45:10.896Z,95.64
2023-03-10T02:46:14.642Z,95.54
2023-03-10T02:47:18.594Z,95.57
2023-03-10T02:48:28.362Z,95.56
2023-03-10T02:49:32.435Z,95.54
2023-03-10T02:50:36.934Z,95.67
2023-03-10T02:51:41.570Z,95.65
2023-03-10T02:52:50.661Z,95.63
2023-03-10T02:53:53.570Z,95.65
2023-03-10T02:54:56.597Z,95.58
2023-03-10T02:56:00.159Z,95.71
2023-03-10T02:57:03.729Z,95.61
2023-03-10T02:58:07.041Z,95.68
2023-03-10T02:59:10.130Z,95.65
2023-03-10T03:00:16.314Z,95.68
2023-03-10T03:01:19.211Z,95.72
2023-03-10T03:02:22.028Z,95.64
2023-03-10T03:03:25.023Z,95.77
2023-03-10T03:04:28.975Z,95.79
2023-03-10T03:08:25.382Z,95.73
2023-03-10T03:09:28.430Z,95.77
2023-03-10T03:10:33.073Z,95.76
2023-03-10T03:11:35.961Z,95.74
2023-03-10T03:12:39.803Z,95.78
2023-03-10T03:13:42.910Z,95.74
2023-03-10T03:14:45.857Z,95.83
2023-03-10T03:15:50.624Z,95.77
2023-03-10T03:16:53.798Z,95.77
2023-03-10T03:17:58.702Z,95.76
2023-03-10T03:19:02.084Z,95.78
2023-03-10T03:20:14.128Z,95.76
2023-03-10T03:21:17.732Z,95.83
2023-03-10T03:22:21.715Z,95.88
2023-03-10T03:23:24.862Z,95.81
2023-03-10T03:24:27.827Z,95.85
2023-03-10T03:25:31.027Z,95.90
2023-03-10T03:26:34.516Z,95.77
2023-03-10T03:27:43.947Z,95.91
2023-03-10T03:28:47.221Z,95.88
2023-03-10T03:29:50.456Z,95.80
2023-03-10T03:30:53.456Z,95.82
2023-03-10T03:31:56.361Z,95.82
2023-03-10T03:33:03.706Z,95.92
2023-03-10T03:34:07.416Z,95.85
2023-03-10T03:35:21.513Z,95.88
2023-03-10T03:36:24.499Z,95.90
2023-03-10T03:37:27.570Z,95.83
2023-03-10T03:38:32.726Z,95.86
2023-03-10T03:39:35.548Z,95.81
2023-03-10T03:40:41.355Z,95.74
2023-03-10T03:41:44.601Z,95.87
2023-03-10T03:42:49.055Z,95.84
2023-03-10T03:43:52.346Z,95.93
2023-03-10T03:44:55.121Z,96.03
2023-03-10T03:45:58.669Z,96.05
2023-03-10T03:47:01.704Z,96.06
2023-03-10T03:48:05.164Z,96.02
2023-03-10T03:49:08.946Z,95.97
2023-03-10T03:50:13.327Z,96.05
2023-03-10T03:51:16.451Z,95.95
2023-03-10T03:52:19.612Z,96.03
2023-03-10T03:53:22.774Z,96.09
2023-03-10T03:54:25.601Z,96.01
2023-03-10T03:55:29.254Z,95.98
2023-03-10T03:56:32.920Z,96.20
2023-03-10T03:57:36.605Z,96.03
2023-03-10T03:58:39.698Z,96.10
2023-03-10T03:59:42.530Z,96.09
2023-03-10T04:00:45.283Z,95.89
2023-03-10T04:01:48.480Z,96.16
2023-03-10T04:02:51.935Z,96.18
2023-03-10T04:03:54.959Z,96.17
2023-03-10T04:04:57.983Z,96.34
2023-03-10T04:06:00.777Z,96.23
2023-03-10T04:07:03.593Z,96.28
2023-03-10T04:08:07.060Z,96.44
2023-03-10T04:09:10.723Z,96.39
2023-03-10T04:10:15.995Z,96.32
2023-03-10T04:11:18.844Z,96.38
2023-03-10T04:12:22.674Z,96.28
2023-03-10T04:13:25.635Z,96.49
2023-03-10T04:14:28.693Z,96.32
2023-03-10T04:15:31.696Z,96.27
2023-03-10T04:16:34.932Z,96.33
2023-03-10T04:17:38.623Z,96.39
2023-03-10T04:18:41.379Z,96.42
2023-03-10T04:19:54.151Z,96.37
2023-03-10T04:21:04.310Z,96.39
2023-03-10T04:22:08.674Z,96.39
2023-03-10T04:23:12.148Z,96.41
2023-03-10T04:24:16.172Z,96.40
2023-03-10T04:25:19.269Z,96.42
2023-03-10T04:26:22.764Z,96.46
2023-03-10T04:27:25.627Z,96.38
2023-03-10T04:28:28.340Z,96.54
2023-03-10T04:29:31.500Z,96.50
2023-03-10T04:30:34.439Z,96.59
2023-03-10T04:31:37.645Z,96.49
2023-03-10T04:32:41.515Z,96.48
2023-03-10T04:33:45.171Z,96.60
2023-03-10T04:34:48.494Z,96.51
2023-03-10T04:35:52.802Z,96.60
2023-03-10T04:36:56.589Z,96.65
2023-03-10T04:37:59.466Z,96.65
2023-03-10T04:39:02.574Z,96.61
2023-03-10T04:40:09.515Z,96.67
2023-03-10T04:41:12.637Z,96.67
2023-03-10T04:42:17.462Z,96.73
2023-03-10T04:43:20.219Z,96.79
2023-03-10T04:44:30.784Z,96.69
2023-03-10T04:45:34.084Z,96.80
2023-03-10T04:46:37.241Z,96.76
2023-03-10T04:47:40.412Z,96.80
2023-03-10T04:48:43.530Z,96.82
2023-03-10T04:49:46.631Z,96.80
2023-03-10T04:50:57.481Z,96.84
2023-03-10T04:52:00.560Z,96.86
2023-03-10T04:53:03.919Z,96.90
2023-03-10T04:54:06.918Z,96.97
2023-03-10T04:55:09.960Z,97.03
2023-03-10T04:56:12.756Z,96.94
2023-03-10T04:57:16.354Z,97.04
2023-03-10T04:58:20.287Z,97.03
2023-03-10T04:59:23.132Z,97.01
2023-03-10T05:00:26.087Z,96.99
2023-03-10T05:01:33.062Z,96.93
2023-03-10T05:02:38.751Z,97.01
2023-03-10T05:03:41.607Z,97.09
2023-03-10T05:04:45.107Z,97.13
2023-03-10T05:05:48.040Z,97.03
2023-03-10T05:06:51.636Z,97.02
2023-03-10T05:08:04.702Z,97.00
2023-03-10T05:09:07.571Z,97.07
2023-03-10T05:10:10.863Z,97.12
2023-03-10T05:11:14.172Z,97.17
2023-03-10T05:12:17.607Z,97.06
2023-03-10T05:13:20.779Z,97.17
2023-03-10T05:14:23.592Z,97.15
2023-03-10T05:15:26.674Z,97.23
2023-03-10T05:16:29.505Z,97.17
2023-03-10T05:17:32.702Z,97.21
2023-03-10T05:18:36.213Z,97.13
2023-03-10T05:19:39.775Z,97.28
2023-03-10T05:20:42.804Z,97.25
2023-03-10T05:21:45.556Z,97.19
2023-03-10T05:22:48.407Z,97.30
2023-03-10T05:23:51.865Z,97.31
2023-03-10T05:24:55.003Z,97.37
2023-03-10T05:25:58.631Z,97.40
2023-03-10T05:27:05.560Z,97.28
2023-03-10T05:28:08.468Z,97.41
2023-03-10T05:29:11.278Z,97.48
2023-03-10T05:30:19.012Z,97.54
2023-03-10T05:31:26.411Z,97.53
2023-03-10T05:32:36.237Z,97.54
2023-03-10T05:33:39.602Z,97.51
2023-03-10T05:34:42.421Z,97.58
2023-03-10T05:35:45.321Z,97.66
2023-03-10T05:36:48.560Z,97.58
2023-03-10T05:37:51.927Z,97.56
2023-03-10T05:38:55.119Z,97.63
2023-03-10T05:39:59.316Z,97.63
2023-03-10T05:41:02.533Z,97.65
2023-03-10T05:42:05.573Z,97.68
2023-03-10T05:43:09.884Z,97.64
2023-03-10T05:44:13.360Z,97.70
2023-03-10T05:45:16.859Z,97.77
2023-03-10T05:46:19.941Z,97.78
2023-03-10T05:47:27.762Z,97.74
2023-03-10T05:48:30.866Z,97.73
2023-03-10T05:49:36.685Z,97.74
2023-03-10T05:50:40.199Z,97.68
2023-03-10T05:51:43.012Z,97.72
2023-03-10T05:52:45.977Z,97.77
2023-03-10T05:53:48.876Z,97.83
2023-03-10T05:54:55.848Z,97.80
2023-03-10T05:55:59.097Z,97.88
2023-03-10T05:57:02.056Z,97.88
2023-03-10T05:58:05.225Z,97.80
2023-03-10T05:59:08.085Z,97.82
2023-03-10T06:00:12.570Z,97.84
2023-03-10T06:01:19.172Z,97.88
2023-03-10T06:02:21.960Z,97.84
2023-03-10T06:03:25.084Z,97.82
2023-03-10T06:04:32.446Z,97.72
2023-03-10T06:05:35.215Z,97.87
2023-03-10T06:06:38.549Z,97.93
2023-03-10T06:07:41.438Z,97.89
2023-03-10T06:08:44.405Z,97.94
2023-03-10T06:09:47.161Z,98.01
2023-03-10T06:10:50.148Z,97.94
2023-03-10T06:11:53.075Z,97.91
2023-03-10T06:12:56.483Z,97.93
2023-03-10T06:13:59.716Z,97.96
2023-03-10T06:15:02.519Z,97.89
2023-03-10T06:16:05.958Z,97.91
2023-03-10T06:17:08.741Z,97.89
2023-03-10T06:18:11.460Z,98.00
2023-03-10T06:19:14.276Z,98.04
2023-03-10T06:20:17.088Z,97.94
2023-03-10T06:21:19.832Z,97.92
2023-03-10T06:22:22.588Z,97.94
2023-03-10T06:23:26.299Z,97.97
2023-03-10T06:24:29.195Z,97.91
2023-03-10T06:25:31.972Z,97.97
2023-03-10T06:26:34.672Z,97.97
2023-03-10T06:27:37.480Z,97.94
2023-03-10T06:28:41.183Z,98.02
2023-03-10T06:29:44.024Z,98.01
2023-03-10T06:30:53.465Z,98.05
2023-03-10T06:31:56.320Z,98.05
2023-03-10T06:33:00.073Z,98.03
2023-03-10T06:34:04.551Z,98.06
2023-03-10T06:35:07.950Z,98.04
2023-03-10T06:36:11.764Z,98.06
2023-03-10T06:37:14.564Z,98.01
2023-03-10T06:38:17.401Z,98.03
2023-03-10T06:39:20.155Z,98.08
2023-03-10T06:40:23.008Z,98.08
2023-03-10T06:41:27.907Z,98.02
2023-03-10T06:42:31.910Z,98.02
2023-03-10T06:43:34.920Z,98.04
2023-03-10T06:44:37.742Z,98.06
2023-03-10T06:45:47.027Z,98.10
2023-03-10T06:46:49.898Z,98.03
2023-03-10T06:47:52.710Z,98.03
2023-03-10T06:48:56.506Z,97.97
2023-03-10T06:50:00.165Z,97.99
2023-03-10T06:51:05.713Z,98.04
2023-03-10T06:52:08.433Z,97.95
2023-03-10T06:53:11.645Z,98.04
2023-03-10T06:54:14.394Z,98.09
2023-03-10T06:55:17.631Z,97.97
2023-03-10T06:56:22.022Z,98.01
2023-03-10T06:57:24.773Z,97.99
2023-03-10T06:58:28.992Z,97.99
2023-03-10T06:59:32.806Z,97.90
2023-03-10T07:00:35.550Z,98.11
2023-03-10T07:01:38.396Z,98.01
2023-03-10T07:02:41.587Z,98.14
2023-03-10T07:03:44.354Z,97.95
2023-03-10T07:04:47.273Z,97.99
2023-03-10T07:05:50.212Z,97.90
2023-03-10T07:06:53.003Z,97.96
2023-03-10T07:07:56.090Z,97.88
2023-03-10T07:08:58.898Z,97.85
2023-03-10T07:10:01.655Z,97.83
2023-03-10T07:11:04.508Z,97.73
2023-03-10T07:12:07.439Z,97.77
2023-03-10T07:13:13.917Z,97.74
2023-03-10T07:14:16.701Z,97.63
2023-03-10T07:15:19.440Z,97.76
2023-03-10T07:16:22.696Z,97.80
2023-03-10T07:17:25.562Z,97.79
2023-03-10T07:18:29.711Z,97.77
2023-03-10T07:19:32.747Z,97.75
2023-03-10T07:20:35.984Z,97.73
2023-03-10T07:21:38.806Z,97.80
2023-03-10T07:22:42.030Z,97.82
2023-03-10T07:23:45.001Z,97.79
2023-03-10T07:24:47.916Z,97.75
2023-03-10T07:25:54.990Z,97.81
2023-03-10T07:27:01.446Z,97.77
2023-03-10T07:28:05.530Z,97.76
2023-03-10T07:29:08.291Z,97.75
2023-03-10T07:30:11.585Z,97.77
2023-03-10T07:31:14.657Z,97.80
2023-03-10T07:32:17.541Z,97.79
2023-03-10T07:33:20.656Z,97.78
2023-03-10T07:34:23.458Z,97.74
2023-03-10T07:35:26.556Z,97.77
2023-03-10T07:36:29.842Z,97.67
2023-03-10T07:37:32.630Z,97.61
2023-03-10T07:38:35.822Z,97.70
2023-03-10T07:39:38.742Z,97.73
2023-03-10T07:40:41.584Z,97.81
2023-03-10T07:41:44.572Z,97.75
2023-03-10T07:42:47.367Z,97.78
2023-03-10T07:43:52.360Z,97.81
2023-03-10T07:44:55.338Z,97.78
2023-03-10T07:45:58.259Z,97.89
2023-03-10T07:47:01.225Z,97.83
2023-03-10T07:49:00.113Z,97.86
2023-03-10T07:50:03.391Z,97.66
2023-03-10T07:51:06.383Z,97.75
2023-03-10T07:52:09.194Z,97.66
2023-03-10T07:53:11.922Z,97.54
2023-03-10T07:54:14.705Z,97.64
2023-03-10T07:55:17.869Z,97.71
2023-03-10T07:56:20.642Z,97.71
2023-03-10T07:57:23.438Z,97.73
2023-03-10T07:58:26.296Z,97.83
2023-03-10T07:59:29.084Z,97.72
2023-03-10T08:00:31.882Z,97.68
2023-03-10T08:01:34.679Z,97.77
2023-03-10T08:02:38.168Z,97.70
2023-03-10T08:03:41.170Z,97.67
2023-03-10T08:04:44.117Z,97.60
2023-03-10T08:05:47.648Z,97.52
2023-03-10T08:06:50.409Z,97.59
2023-03-10T08:07:53.172Z,97.57
2023-03-10T08:08:56.155Z,97.56
2023-03-10T08:09:59.034Z,97.60
2023-03-10T08:11:06.379Z,97.50
2023-03-10T08:12:09.328Z,97.54
2023-03-10T08:13:12.392Z,97.64
2023-03-10T08:14:16.091Z,97.70
2023-03-10T08:15:19.017Z,97.80
2023-03-10T08:16:22.619Z,97.71
2023-03-10T08:17:30.740Z,97.66
2023-03-10T08:18:33.541Z,97.62
2023-03-10T08:19:37.899Z,97.68
2023-03-10T08:20:40.819Z,97.68
2023-03-10T08:21:43.841Z,97.71
2023-03-10T08:22:46.615Z,97.62
2023-03-10T08:23:49.500Z,97.68
2023-03-10T08:24:52.556Z,97.66
2023-03-10T08:25:55.321Z,97.66
2023-03-10T08:26:58.359Z,97.72
2023-03-10T08:28:01.718Z,97.67
2023-03-10T08:29:04.464Z,97.72
2023-03-10T08:30:07.609Z,97.68
2023-03-10T08:31:12.117Z,97.79
2023-03-10T08:32:14.965Z,97.89
2023-03-10T08:33:17.854Z,97.85
2023-03-10T08:34:20.652Z,97.89
2023-03-10T08:35:23.403Z,97.90
2023-03-10T08:36:28.372Z,97.98
2023-03-10T08:37:31.368Z,98.05
2023-03-10T08:38:34.470Z,98.17
2023-03-10T08:39:37.793Z,98.15
2023-03-10T08:40:40.595Z,98.20
2023-03-10T08:41:49.159Z,98.27
2023-03-10T08:42:52.383Z,98.31
2023-03-10T08:43:56.640Z,98.36
2023-03-10T08:44:59.545Z,98.34
2023-03-10T08:46:02.581Z,98.31
2023-03-10T08:47:05.602Z,98.38
2023-03-10T08:48:08.495Z,98.42
2023-03-10T08:49:11.652Z,98.45
2023-03-10T08:50:14.591Z,98.55
2023-03-10T08:51:18.442Z,98.53
2023-03-10T08:52:21.192Z,98.73
2023-03-10T08:53:24.276Z,98.63
2023-03-10T08:54:27.379Z,98.68
2023-03-10T08:55:30.202Z,98.74
2023-03-10T08:56:33.064Z,98.67
2023-03-10T08:57:35.845Z,98.66
2023-03-10T08:58:38.921Z,98.63
2023-03-10T08:59:41.992Z,98.61
2023-03-10T09:00:45.073Z,98.61
2023-03-10T09:01:47.973Z,98.59
2023-03-10T09:02:50.869Z,98.68
2023-03-10T09:03:53.714Z,98.52
2023-03-10T09:04:56.493Z,98.62
2023-03-10T09:05:59.308Z,98.62
2023-03-10T09:07:02.101Z,98.43
2023-03-10T09:08:05.013Z,98.52
2023-03-10T09:09:08.520Z,98.45
2023-03-10T09:10:11.392Z,98.49
2023-03-10T09:11:19.649Z,98.45
2023-03-10T09:12:22.478Z,98.39
2023-03-10T09:13:25.260Z,98.41
2023-03-10T09:14:28.011Z,98.38
2023-03-10T09:15:30.907Z,98.30
2023-03-10T09:16:34.217Z,98.41
2023-03-10T09:17:39.486Z,98.40
2023-03-10T09:18:43.622Z,98.39
2023-03-10T09:19:46.463Z,98.41
2023-03-10T09:20:49.743Z,98.60
2023-03-10T09:21:52.505Z,98.56
2023-03-10T09:22:55.726Z,98.45
2023-03-10T09:23:58.785Z,98.52
2023-03-10T09:25:01.583Z,98.56
2023-03-10T09:26:04.369Z,98.42
2023-03-10T09:27:07.665Z,98.51
2023-03-10T09:28:11.783Z,98.55
2023-03-10T09:29:14.673Z,98.61
2023-03-10T09:30:17.841Z,98.63
2023-03-10T09:31:23.121Z,98.51
2023-03-10T09:32:26.128Z,98.48
2023-03-10T09:33:28.970Z,98.58
2023-03-10T09:34:31.880Z,98.59
2023-03-10T09:35:35.977Z,98.67
2023-03-10T09:36:40.307Z,98.63
2023-03-10T09:37:43.074Z,98.64
2023-03-10T09:38:45.860Z,98.65
2023-03-10T09:39:48.629Z,98.81
2023-03-10T09:40:56.699Z,98.78
2023-03-10T09:42:11.913Z,98.79
2023-03-10T09:43:16.271Z,98.78
2023-03-10T09:44:19.215Z,98.92
2023-03-10T09:45:47.350Z,98.90
2023-03-10T09:47:05.937Z,98.96
2023-03-10T09:48:12.902Z,98.98
2023-03-10T09:49:18.332Z,99.12
2023-03-10T09:50:27.224Z,99.03
2023-03-10T09:51:29.987Z,99.14
2023-03-10T09:52:44.278Z,99.11
2023-03-10T09:54:06.579Z,99.26
2023-03-10T09:55:19.422Z,99.23
2023-03-10T09:56:29.915Z,99.27
2023-03-10T09:57:33.555Z,99.22
2023-03-10T09:58:39.480Z,99.30
2023-03-10T09:59:43.422Z,99.26
2023-03-10T10:00:46.285Z,99.37
2023-03-10T10:01:50.557Z,99.46
2023-03-10T10:03:00.100Z,99.55
2023-03-10T10:04:08.228Z,99.44
2023-03-10T10:05:17.180Z,99.54
2023-03-10T10:06:27.965Z,99.70
2023-03-10T10:07:40.792Z,99.73
2023-03-10T10:08:54.708Z,99.80
2023-03-10T10:10:05.956Z,99.93
2023-03-10T10:11:13.944Z,99.90
2023-03-10T10:12:25.033Z,99.96
2023-03-10T10:13:29.971Z,99.92
2023-03-10T10:14:33.330Z,99.93
2023-03-10T10:15:38.089Z,99.98
2023-03-10T10:16:40.866Z,100.00
2023-03-10T10:18:08.612Z,99.95
2023-03-10T10:19:22.470Z,100.00
2023-03-10T10:20:32.457Z,100.00
2023-03-10T10:21:52.648Z,99.98
2023-03-10T10:22:55.440Z,99.99
2023-03-10T10:23:59.409Z,100.00
2023-03-10T10:25:08.497Z,100.00
2023-03-10T10:26:13.676Z,100.00
2023-03-10T10:27:18.739Z,100.00
2023-03-10T10:28:29.191Z,100.00
2023-03-10T10:29:38.997Z,100.00
2023-03-10T10:30:41.880Z,100.00
2023-03-10T10:32:02.036Z,100.00
2023-03-10T10:33:09.536Z,99.98
2023-03-10T10:34:22.252Z,100.00
2023-03-10T10:35:26.314Z,100.00
2023-03-10T10:36:33.014Z,100.00
2023-03-10T10:37:40.184Z,100.00
2023-03-10T10:38:48.463Z,100.00
2023-03-10T10:39:52.868Z,100.00
2023-03-10T10:41:05.785Z,100.00
2023-03-10T10:42:18.985Z,99.98
2023-03-10T10:43:22.313Z,99.95
2023-03-10T10:44:25.069Z,100.00
2023-03-10T10:45:30.426Z,100.00
2023-03-10T10:46:33.485Z,100.00
2023-03-10T10:47:49.945Z,100.00
2023-03-10T10:49:03.670Z,100.00
2023-03-10T10:50:26.411Z,100.00
2023-03-10T10:51:30.395Z,100.00
2023-03-10T10:52:33.625Z,100.00
2023-03-10T10:53:42.823Z,100.00
2023-03-10T10:54:51.989Z,100.00
2023-03-10T10:56:06.127Z,100.00
2023-03-10T10:57:20.103Z,100.00
2023-03-10T10:58:28.701Z,100.00
2023-03-10T10:59:35.701Z,100.00
2023-03-10T11:00:38.836Z,100.00
2023-03-10T11:01:54.987Z,100.00
2023-03-10T11:02:58.341Z,100.00
2023-03-10T11:04:06.328Z,100.00
2023-03-10T11:05:15.185Z,100.00
2023-03-10T11:06:27.217Z,100.00
2023-03-10T11:07:29.980Z,100.00
2023-03-10T11:08:37.501Z,100.00
2023-03-10T11:09:40.322Z,100.00
2023-03-10T11:10:44.169Z,100.00
2023-03-10T11:12:02.119Z,100.00
2023-03-10T11:13:16.487Z,100.00
2023-03-10T11:14:19.603Z,100.00
2023-03-10T11:15:31.026Z,100.00
2023-03-10T11:16:34.317Z,100.00
2023-03-10T11:17:56.161Z,100.00
2023-03-10T11:19:19.202Z,100.00
2023-03-10T11:20:41.066Z,100.00
2023-03-10T11:21:51.013Z,100.00
2023-03-10T11:22:57.182Z,100.00
2023-03-10T11:24:08.850Z,100.00
2023-03-10T11:25:19.231Z,100.00
2023-03-10T11:26:22.259Z,100.00
2023-03-10T11:27:43.650Z,99.97
2023-03-10T11:28:46.673Z,100.00
2023-03-10T11:29:49.497Z,100.00
2023-03-10T11:30:58.427Z,100.00
2023-03-10T11:32:01.233Z,99.79
2023-03-10T11:33:20.879Z,99.81
2023-03-10T11:34:31.588Z,99.52
2023-03-10T11:35:47.686Z,99.45
2023-03-10T11:37:14.444Z,99.45
2023-03-10T11:38:21.369Z,99.41
2023-03-10T11:39:43.839Z,99.20
2023-03-10T11:40:58.602Z,99.08
2023-03-10T11:42:06.622Z,99.10
2023-03-10T11:43:27.891Z,99.20
2023-03-10T11:44:57.814Z,99.10
2023-03-10T11:46:03.758Z,99.27
2023-03-10T11:47:13.836Z,99.24
2023-03-10T11:48:48.924Z,99.19
2023-03-10T11:49:57.801Z,99.18
2023-03-10T11:51:03.785Z,99.16
2023-03-10T11:52:18.865Z,99.30
2023-03-10T11:53:30.351Z,99.39
2023-03-10T11:54:51.578Z,99.64
2023-03-10T11:55:55.184Z,99.55
2023-03-10T11:56:58.376Z,99.55
2023-03-10T11:58:03.478Z,99.54
2023-03-10T11:59:10.078Z,99.52
2023-03-10T12:00:18.419Z,99.32
2023-03-10T12:01:28.402Z,98.69
2023-03-10T12:02:39.598Z,98.65
2023-03-10T12:03:48.550Z,98.58
2023-03-10T12:04:54.932Z,98.39
2023-03-10T12:05:58.988Z,98.25
2023-03-10T12:07:11.062Z,98.18
2023-03-10T12:08:15.749Z,97.92
2023-03-10T12:09:28.505Z,97.78
2023-03-10T12:10:33.804Z,97.68
2023-03-10T12:11:36.803Z,97.66
2023-03-10T12:12:41.456Z,97.41
2023-03-10T12:13:49.291Z,97.44
2023-03-10T12:14:52.822Z,97.34
2023-03-10T12:16:02.380Z,97.20
2023-03-10T12:17:05.609Z,96.89
2023-03-10T12:18:08.534Z,96.86
2023-03-10T12:19:11.434Z,96.88
2023-03-10T12:20:14.148Z,96.89
2023-03-10T12:21:27.411Z,96.93
2023-03-10T12:22:39.583Z,96.90
2023-03-10T12:23:43.911Z,96.77
2023-03-10T12:24:47.586Z,96.59
2023-03-10T12:25:53.474Z,96.55
2023-03-10T12:27:03.485Z,96.54
2023-03-10T12:28:12.068Z,96.49
2023-03-10T12:29:32.089Z,96.42
2023-03-10T12:30:58.175Z,96.39
2023-03-10T12:32:01.151Z,96.39
2023-03-10T12:33:03.993Z,96.23
2023-03-10T12:34:25.031Z,96.13
2023-03-10T12:35:50.884Z,96.16
2023-03-10T12:36:55.040Z,96.01
2023-03-10T12:38:16.257Z,95.97
2023-03-10T12:39:28.071Z,95.91
2023-03-10T12:41:03.408Z,95.86
2023-03-10T12:42:26.803Z,95.79
2023-03-10T12:43:38.673Z,95.65
2023-03-10T12:44:49.886Z,95.38
2023-03-10T12:45:52.802Z,95.40
2023-03-10T12:46:55.604Z,95.41
2023-03-10T12:48:01.894Z,95.27
2023-03-10T12:49:22.223Z,95.17
2023-03-10T12:50:30.920Z,95.03
2023-03-10T12:51:36.966Z,95.02
2023-03-10T12:52:45.042Z,94.93
2023-03-10T12:53:54.631Z,94.99
2023-03-10T12:55:24.453Z,94.93
2023-03-10T12:56:53.283Z,94.73
2023-03-10T12:58:03.153Z,94.48
2023-03-10T12:59:12.014Z,94.38
2023-03-10T13:00:27.666Z,94.22
2023-03-10T13:01:43.249Z,94.09
2023-03-10T13:02:51.609Z,93.90
2023-03-10T13:03:55.439Z,93.75
2023-03-10T13:05:15.224Z,93.64
2023-03-10T13:06:22.194Z,93.67
2023-03-10T13:07:25.067Z,93.61
2023-03-10T13:08:40.307Z,93.52
2023-03-10T13:09:45.668Z,93.22
2023-03-10T13:10:53.582Z,92.92
2023-03-10T13:11:56.296Z,92.64
2023-03-10T13:13:01.788Z,92.36
2023-03-10T13:14:09.997Z,92.32
2023-03-10T13:15:20.531Z,92.13
2023-03-10T13:16:23.387Z,92.08
2023-03-10T13:17:27.792Z,92.02
2023-03-10T13:18:30.731Z,91.79
2023-03-10T13:19:34.889Z,91.80
2023-03-10T13:20:38.082Z,91.71
2023-03-10T13:21:41.012Z,91.72
2023-03-10T13:22:57.152Z,91.68
2023-03-10T13:24:01.142Z,91.58
2023-03-10T13:25:06.063Z,91.58
2023-03-10T13:26:15.587Z,91.61
2023-03-10T13:27:19.682Z,91.55
2023-03-10T13:28:26.683Z,91.53
2023-03-10T13:29:29.538Z,91.52
2023-03-10T13:30:32.296Z,91.43
2023-03-10T13:31:35.086Z,91.36
2023-03-10T13:32:38.039Z,91.39
2023-03-10T13:33:52.234Z,91.29
2023-03-10T13:34:57.409Z,91.31
2023-03-10T13:36:00.205Z,91.12
2023-03-10T13:37:04.565Z,91.15
2023-03-10T13:38:07.382Z,91.06
2023-03-10T13:39:17.760Z,91.04
2023-03-10T13:40:20.609Z,90.95
2023-03-10T13:41:23.768Z,90.78
2023-03-10T13:42:40.993Z,90.79
2023-03-10T13:43:48.670Z,90.85
2023-03-10T13:44:52.573Z,90.78
2023-03-10T13:45:57.109Z,90.68
2023-03-10T13:47:01.501Z,90.70
2023-03-10T13:48:05.151Z,90.62
2023-03-10T13:49:08.406Z,90.52
2023-03-10T13:50:14.761Z,90.35
2023-03-10T13:51:22.585Z,90.38
2023-03-10T13:52:27.592Z,90.33
2023-03-10T13:53:30.360Z,90.22
2023-03-10T13:54:34.490Z,90.21
2023-03-10T13:55:40.812Z,90.26
2023-03-10T13:56:43.979Z,90.16
2023-03-10T13:57:48.460Z,89.91
2023-03-10T13:58:52.757Z,89.98
2023-03-10T13:59:57.072Z,89.98
2023-03-10T14:01:00.988Z,89.95
2023-03-10T14:02:04.091Z,89.88
2023-03-10T14:03:08.023Z,89.80
2023-03-10T14:04:15.658Z,89.71
2023-03-10T14:05:37.084Z,89.59